sensor_id;sensor_type;location;lat;lon;timestamp;P1;durP1;ratioP1;P2;durP2;ratioP2
52576;SDS011;38469;53.562;10.048;2023-07-13T00:01:25;8.77;;;3.78;;
52576;SDS011;38469;53.562;10.048;2023-07-13T00:03:52;5.80;;;3.42;;
52576;SDS011;38469;53.562;10.048;2023-07-13T00:06:19;5.80;;;3.42;;
52576;SDS011;38469;53.562;10.048;2023-07-13T00:08:46;7.32;;;3.30;;
52576;SDS011;38469;53.562;10.048;2023-07-13T00:11:14;9.52;;;4.68;;
52576;SDS011;38469;53.562;10.048;2023-07-13T00:13:41;6.03;;;3.15;;
52576;SDS011;38469;53.562;10.048;2023-07-13T00:16:08;5.78;;;3.90;;
52576;SDS011;38469;53.562;10.048;2023-07-13T00:18:35;7.25;;;3.92;;
52576;SDS011;38469;53.562;10.048;2023-07-13T00:21:02;6.35;;;3.88;;
52576;SDS011;38469;53.562;10.048;2023-07-13T00:23:32;9.82;;;4.30;;
52576;SDS011;38469;53.562;10.048;2023-07-13T00:25:59;12.23;;;4.30;;
52576;SDS011;38469;53.562;10.048;2023-07-13T00:28:27;11.57;;;4.07;;
52576;SDS011;38469;53.562;10.048;2023-07-13T00:30:53;10.05;;;4.25;;
52576;SDS011;38469;53.562;10.048;2023-07-13T00:33:20;7.18;;;4.60;;
52576;SDS011;38469;53.562;10.048;2023-07-13T00:35:47;7.28;;;5.18;;
52576;SDS011;38469;53.562;10.048;2023-07-13T00:38:14;8.07;;;4.47;;
52576;SDS011;38469;53.562;10.048;2023-07-13T00:40:42;8.32;;;4.72;;
52576;SDS011;38469;53.562;10.048;2023-07-13T00:43:09;14.27;;;4.68;;
52576;SDS011;38469;53.562;10.048;2023-07-13T00:48:44;9.90;;;5.57;;
52576;SDS011;38469;53.562;10.048;2023-07-13T00:51:14;7.13;;;4.20;;
52576;SDS011;38469;53.562;10.048;2023-07-13T00:53:43;8.52;;;4.60;;
52576;SDS011;38469;53.562;10.048;2023-07-13T00:56:12;8.27;;;5.00;;
52576;SDS011;38469;53.562;10.048;2023-07-13T00:58:39;11.32;;;4.75;;
52576;SDS011;38469;53.562;10.048;2023-07-13T01:01:06;15.80;;;5.60;;
52576;SDS011;38469;53.562;10.048;2023-07-13T01:03:32;11.13;;;5.03;;
52576;SDS011;38469;53.562;10.048;2023-07-13T01:06:00;12.27;;;5.60;;
52576;SDS011;38469;53.562;10.048;2023-07-13T01:08:27;12.00;;;5.70;;
52576;SDS011;38469;53.562;10.048;2023-07-13T01:10:54;9.77;;;4.95;;
52576;SDS011;38469;53.562;10.048;2023-07-13T01:13:24;12.90;;;5.22;;
52576;SDS011;38469;53.562;10.048;2023-07-13T01:15:51;6.47;;;4.55;;
52576;SDS011;38469;53.562;10.048;2023-07-13T01:18:39;10.23;;;4.85;;
52576;SDS011;38469;53.562;10.048;2023-07-13T01:21:07;10.02;;;4.70;;
52576;SDS011;38469;53.562;10.048;2023-07-13T01:23:34;8.65;;;4.95;;
52576;SDS011;38469;53.562;10.048;2023-07-13T01:26:00;9.45;;;4.93;;
52576;SDS011;38469;53.562;10.048;2023-07-13T01:28:28;7.95;;;4.78;;
52576;SDS011;38469;53.562;10.048;2023-07-13T01:30:56;8.13;;;5.07;;
52576;SDS011;38469;53.562;10.048;2023-07-13T01:33:24;10.45;;;5.40;;
52576;SDS011;38469;53.562;10.048;2023-07-13T01:35:51;12.70;;;5.10;;
52576;SDS011;38469;53.562;10.048;2023-07-13T01:38:20;11.43;;;5.78;;
52576;SDS011;38469;53.562;10.048;2023-07-13T01:41:07;10.45;;;5.75;;
52576;SDS011;38469;53.562;10.048;2023-07-13T01:43:33;7.95;;;5.72;;
52576;SDS011;38469;53.562;10.048;2023-07-13T01:46:00;10.85;;;6.00;;
52576;SDS011;38469;53.562;10.048;2023-07-13T01:48:26;15.02;;;6.57;;
52576;SDS011;38469;53.562;10.048;2023-07-13T01:50:53;13.57;;;6.22;;
52576;SDS011;38469;53.562;10.048;2023-07-13T01:53:20;11.48;;;6.63;;
52576;SDS011;38469;53.562;10.048;2023-07-13T01:55:47;15.02;;;7.85;;
52576;SDS011;38469;53.562;10.048;2023-07-13T01:58:13;9.18;;;7.47;;
52576;SDS011;38469;53.562;10.048;2023-07-13T02:00:40;16.17;;;8.05;;
52576;SDS011;38469;53.562;10.048;2023-07-13T02:03:06;12.00;;;7.97;;
52576;SDS011;38469;53.562;10.048;2023-07-13T02:05:33;11.55;;;8.13;;
52576;SDS011;38469;53.562;10.048;2023-07-13T02:07:59;15.27;;;8.40;;
52576;SDS011;38469;53.562;10.048;2023-07-13T02:10:27;15.32;;;8.93;;
52576;SDS011;38469;53.562;10.048;2023-07-13T02:12:54;18.15;;;8.60;;
52576;SDS011;38469;53.562;10.048;2023-07-13T02:15:20;15.32;;;9.02;;
52576;SDS011;38469;53.562;10.048;2023-07-13T02:17:47;14.02;;;9.90;;
52576;SDS011;38469;53.562;10.048;2023-07-13T02:20:13;14.95;;;10.30;;
52576;SDS011;38469;53.562;10.048;2023-07-13T02:22:40;13.40;;;9.18;;
52576;SDS011;38469;53.562;10.048;2023-07-13T02:25:06;17.30;;;10.20;;
52576;SDS011;38469;53.562;10.048;2023-07-13T02:27:35;19.05;;;10.80;;
52576;SDS011;38469;53.562;10.048;2023-07-13T02:30:01;20.92;;;11.20;;
52576;SDS011;38469;53.562;10.048;2023-07-13T02:32:28;18.50;;;10.48;;
52576;SDS011;38469;53.562;10.048;2023-07-13T02:34:54;17.38;;;10.57;;
52576;SDS011;38469;53.562;10.048;2023-07-13T02:37:21;15.75;;;10.68;;
52576;SDS011;38469;53.562;10.048;2023-07-13T02:39:47;14.38;;;10.80;;
52576;SDS011;38469;53.562;10.048;2023-07-13T02:42:14;17.25;;;10.52;;
52576;SDS011;38469;53.562;10.048;2023-07-13T02:44:42;14.30;;;10.63;;
52576;SDS011;38469;53.562;10.048;2023-07-13T02:47:09;14.52;;;10.70;;
52576;SDS011;38469;53.562;10.048;2023-07-13T02:49:35;15.65;;;10.10;;
52576;SDS011;38469;53.562;10.048;2023-07-13T02:52:02;17.15;;;10.45;;
52576;SDS011;38469;53.562;10.048;2023-07-13T02:54:29;16.95;;;10.68;;
52576;SDS011;38469;53.562;10.048;2023-07-13T02:56:55;15.77;;;10.77;;
52576;SDS011;38469;53.562;10.048;2023-07-13T02:59:22;15.57;;;10.75;;
52576;SDS011;38469;53.562;10.048;2023-07-13T03:01:49;15.43;;;10.82;;
52576;SDS011;38469;53.562;10.048;2023-07-13T03:04:16;18.15;;;10.68;;
52576;SDS011;38469;53.562;10.048;2023-07-13T03:06:44;19.60;;;10.65;;
52576;SDS011;38469;53.562;10.048;2023-07-13T03:09:11;15.75;;;10.45;;
52576;SDS011;38469;53.562;10.048;2023-07-13T03:11:38;11.50;;;9.65;;
52576;SDS011;38469;53.562;10.048;2023-07-13T03:14:04;14.73;;;9.63;;
52576;SDS011;38469;53.562;10.048;2023-07-13T03:16:31;15.30;;;9.63;;
52576;SDS011;38469;53.562;10.048;2023-07-13T03:18:59;13.40;;;9.40;;
52576;SDS011;38469;53.562;10.048;2023-07-13T03:21:25;13.50;;;9.10;;
52576;SDS011;38469;53.562;10.048;2023-07-13T03:23:52;13.57;;;9.20;;
52576;SDS011;38469;53.562;10.048;2023-07-13T03:26:19;15.73;;;9.70;;
52576;SDS011;38469;53.562;10.048;2023-07-13T03:28:46;13.70;;;8.93;;
52576;SDS011;38469;53.562;10.048;2023-07-13T03:31:14;11.90;;;8.82;;
52576;SDS011;38469;53.562;10.048;2023-07-13T03:33:41;16.15;;;9.43;;
52576;SDS011;38469;53.562;10.048;2023-07-13T03:36:12;15.73;;;9.35;;
52576;SDS011;38469;53.562;10.048;2023-07-13T03:38:41;10.35;;;8.70;;
52576;SDS011;38469;53.562;10.048;2023-07-13T03:41:07;14.05;;;9.45;;
52576;SDS011;38469;53.562;10.048;2023-07-13T03:43:34;10.48;;;9.13;;
52576;SDS011;38469;53.562;10.048;2023-07-13T03:46:00;13.63;;;8.95;;
52576;SDS011;38469;53.562;10.048;2023-07-13T03:48:27;11.20;;;8.65;;
52576;SDS011;38469;53.562;10.048;2023-07-13T03:50:53;11.45;;;8.38;;
52576;SDS011;38469;53.562;10.048;2023-07-13T03:53:21;10.75;;;7.57;;
52576;SDS011;38469;53.562;10.048;2023-07-13T03:55:48;11.57;;;7.40;;
52576;SDS011;38469;53.562;10.048;2023-07-13T03:58:25;7.82;;;6.53;;
52576;SDS011;38469;53.562;10.048;2023-07-13T04:00:56;11.50;;;7.20;;
52576;SDS011;38469;53.562;10.048;2023-07-13T04:03:23;10.13;;;6.93;;
52576;SDS011;38469;53.562;10.048;2023-07-13T04:05:53;8.75;;;6.50;;
52576;SDS011;38469;53.562;10.048;2023-07-13T04:08:26;7.88;;;5.75;;
52576;SDS011;38469;53.562;10.048;2023-07-13T04:10:53;9.60;;;5.82;;
52576;SDS011;38469;53.562;10.048;2023-07-13T04:13:20;15.20;;;5.60;;
52576;SDS011;38469;53.562;10.048;2023-07-13T04:15:46;14.02;;;5.53;;
52576;SDS011;38469;53.562;10.048;2023-07-13T04:18:13;7.28;;;5.15;;
52576;SDS011;38469;53.562;10.048;2023-07-13T04:20:39;9.38;;;4.85;;
52576;SDS011;38469;53.562;10.048;2023-07-13T04:23:06;11.48;;;5.13;;
52576;SDS011;38469;53.562;10.048;2023-07-13T04:25:33;8.10;;;4.93;;
52576;SDS011;38469;53.562;10.048;2023-07-13T04:28:00;10.70;;;5.03;;
52576;SDS011;38469;53.562;10.048;2023-07-13T04:30:27;9.18;;;5.10;;
52576;SDS011;38469;53.562;10.048;2023-07-13T04:32:53;10.93;;;5.40;;
52576;SDS011;38469;53.562;10.048;2023-07-13T04:35:20;7.93;;;4.65;;
52576;SDS011;38469;53.562;10.048;2023-07-13T04:37:47;8.45;;;5.18;;
52576;SDS011;38469;53.562;10.048;2023-07-13T04:40:15;8.60;;;5.15;;
52576;SDS011;38469;53.562;10.048;2023-07-13T04:42:43;12.75;;;4.90;;
52576;SDS011;38469;53.562;10.048;2023-07-13T04:45:10;13.27;;;4.95;;
52576;SDS011;38469;53.562;10.048;2023-07-13T04:47:37;10.75;;;5.05;;
52576;SDS011;38469;53.562;10.048;2023-07-13T04:50:04;11.25;;;4.80;;
52576;SDS011;38469;53.562;10.048;2023-07-13T04:52:32;9.52;;;4.60;;
52576;SDS011;38469;53.562;10.048;2023-07-13T04:54:58;8.18;;;4.53;;
52576;SDS011;38469;53.562;10.048;2023-07-13T04:57:26;9.65;;;4.30;;
52576;SDS011;38469;53.562;10.048;2023-07-13T04:59:54;8.85;;;4.13;;
52576;SDS011;38469;53.562;10.048;2023-07-13T05:02:20;7.10;;;3.97;;
52576;SDS011;38469;53.562;10.048;2023-07-13T05:04:49;7.68;;;3.80;;
52576;SDS011;38469;53.562;10.048;2023-07-13T05:07:16;9.23;;;4.05;;
52576;SDS011;38469;53.562;10.048;2023-07-13T05:09:42;10.52;;;4.30;;
52576;SDS011;38469;53.562;10.048;2023-07-13T05:12:09;12.10;;;4.38;;
52576;SDS011;38469;53.562;10.048;2023-07-13T05:14:36;16.10;;;4.05;;
52576;SDS011;38469;53.562;10.048;2023-07-13T05:17:04;8.25;;;3.83;;
52576;SDS011;38469;53.562;10.048;2023-07-13T05:19:31;7.22;;;3.33;;
52576;SDS011;38469;53.562;10.048;2023-07-13T05:21:58;11.55;;;3.72;;
52576;SDS011;38469;53.562;10.048;2023-07-13T05:24:24;11.82;;;3.90;;
52576;SDS011;38469;53.562;10.048;2023-07-13T05:26:50;17.02;;;3.75;;
52576;SDS011;38469;53.562;10.048;2023-07-13T05:29:18;10.45;;;3.53;;
52576;SDS011;38469;53.562;10.048;2023-07-13T05:31:45;12.85;;;3.78;;
52576;SDS011;38469;53.562;10.048;2023-07-13T05:34:13;14.38;;;3.97;;
52576;SDS011;38469;53.562;10.048;2023-07-13T05:36:39;9.32;;;4.10;;
52576;SDS011;38469;53.562;10.048;2023-07-13T05:39:06;8.85;;;3.83;;
52576;SDS011;38469;53.562;10.048;2023-07-13T05:41:33;8.15;;;3.40;;
52576;SDS011;38469;53.562;10.048;2023-07-13T05:43:59;13.60;;;3.85;;
52576;SDS011;38469;53.562;10.048;2023-07-13T05:46:26;10.15;;;3.67;;
52576;SDS011;38469;53.562;10.048;2023-07-13T05:48:52;9.35;;;3.83;;
52576;SDS011;38469;53.562;10.048;2023-07-13T05:51:20;13.25;;;4.28;;
52576;SDS011;38469;53.562;10.048;2023-07-13T05:53:47;14.40;;;4.15;;
52576;SDS011;38469;53.562;10.048;2023-07-13T05:56:13;10.80;;;3.90;;
52576;SDS011;38469;53.562;10.048;2023-07-13T05:58:39;14.70;;;4.70;;
52576;SDS011;38469;53.562;10.048;2023-07-13T06:01:08;18.13;;;4.45;;
52576;SDS011;38469;53.562;10.048;2023-07-13T06:03:37;13.02;;;4.60;;
52576;SDS011;38469;53.562;10.048;2023-07-13T06:06:03;11.02;;;4.43;;
52576;SDS011;38469;53.562;10.048;2023-07-13T06:08:32;17.08;;;4.53;;
52576;SDS011;38469;53.562;10.048;2023-07-13T06:11:03;14.38;;;3.95;;
52576;SDS011;38469;53.562;10.048;2023-07-13T06:13:31;12.52;;;4.35;;
52576;SDS011;38469;53.562;10.048;2023-07-13T06:15:58;13.15;;;3.90;;
52576;SDS011;38469;53.562;10.048;2023-07-13T06:18:24;13.10;;;3.38;;
52576;SDS011;38469;53.562;10.048;2023-07-13T06:20:51;16.58;;;3.95;;
52576;SDS011;38469;53.562;10.048;2023-07-13T06:23:17;15.48;;;3.88;;
52576;SDS011;38469;53.562;10.048;2023-07-13T06:25:45;12.30;;;3.67;;
52576;SDS011;38469;53.562;10.048;2023-07-13T06:28:12;10.38;;;3.50;;
52576;SDS011;38469;53.562;10.048;2023-07-13T06:30:38;26.63;;;5.10;;
52576;SDS011;38469;53.562;10.048;2023-07-13T06:33:05;12.20;;;3.63;;
52576;SDS011;38469;53.562;10.048;2023-07-13T06:35:32;11.25;;;3.00;;
52576;SDS011;38469;53.562;10.048;2023-07-13T06:37:58;15.00;;;3.72;;
52576;SDS011;38469;53.562;10.048;2023-07-13T06:40:25;15.75;;;3.83;;
52576;SDS011;38469;53.562;10.048;2023-07-13T06:42:55;11.75;;;3.60;;
52576;SDS011;38469;53.562;10.048;2023-07-13T06:45:22;10.32;;;3.72;;
52576;SDS011;38469;53.562;10.048;2023-07-13T06:47:49;12.43;;;3.85;;
52576;SDS011;38469;53.562;10.048;2023-07-13T06:50:16;9.65;;;3.40;;
52576;SDS011;38469;53.562;10.048;2023-07-13T06:52:42;8.48;;;3.25;;
52576;SDS011;38469;53.562;10.048;2023-07-13T06:55:09;15.85;;;3.72;;
52576;SDS011;38469;53.562;10.048;2023-07-13T06:57:35;17.27;;;3.35;;
52576;SDS011;38469;53.562;10.048;2023-07-13T07:00:03;12.70;;;3.40;;
52576;SDS011;38469;53.562;10.048;2023-07-13T07:02:31;12.93;;;3.60;;
52576;SDS011;38469;53.562;10.048;2023-07-13T07:04:58;10.10;;;3.05;;
52576;SDS011;38469;53.562;10.048;2023-07-13T07:07:24;12.02;;;3.08;;
52576;SDS011;38469;53.562;10.048;2023-07-13T07:09:51;13.60;;;3.80;;
52576;SDS011;38469;53.562;10.048;2023-07-13T07:12:17;8.70;;;2.92;;
52576;SDS011;38469;53.562;10.048;2023-07-13T07:14:44;10.20;;;3.25;;
52576;SDS011;38469;53.562;10.048;2023-07-13T07:17:12;12.02;;;3.25;;
52576;SDS011;38469;53.562;10.048;2023-07-13T07:19:38;9.63;;;4.03;;
52576;SDS011;38469;53.562;10.048;2023-07-13T07:22:05;8.43;;;3.08;;
52576;SDS011;38469;53.562;10.048;2023-07-13T07:24:32;16.77;;;3.28;;
52576;SDS011;38469;53.562;10.048;2023-07-13T07:26:58;9.38;;;2.65;;
52576;SDS011;38469;53.562;10.048;2023-07-13T07:29:25;9.20;;;3.15;;
52576;SDS011;38469;53.562;10.048;2023-07-13T07:31:52;8.70;;;3.05;;
52576;SDS011;38469;53.562;10.048;2023-07-13T07:34:20;11.00;;;3.05;;
52576;SDS011;38469;53.562;10.048;2023-07-13T07:36:47;14.27;;;3.13;;
52576;SDS011;38469;53.562;10.048;2023-07-13T07:39:13;9.60;;;2.72;;
52576;SDS011;38469;53.562;10.048;2023-07-13T07:41:40;11.38;;;2.80;;
52576;SDS011;38469;53.562;10.048;2023-07-13T07:44:06;10.63;;;2.70;;
52576;SDS011;38469;53.562;10.048;2023-07-13T07:46:34;12.55;;;2.75;;
52576;SDS011;38469;53.562;10.048;2023-07-13T07:49:01;16.52;;;2.50;;
52576;SDS011;38469;53.562;10.048;2023-07-13T07:51:29;8.30;;;2.60;;
52576;SDS011;38469;53.562;10.048;2023-07-13T07:53:55;9.35;;;2.63;;
52576;SDS011;38469;53.562;10.048;2023-07-13T07:56:22;11.48;;;3.08;;
52576;SDS011;38469;53.562;10.048;2023-07-13T07:58:49;9.20;;;2.47;;
52576;SDS011;38469;53.562;10.048;2023-07-13T08:01:15;6.78;;;2.17;;
52576;SDS011;38469;53.562;10.048;2023-07-13T08:03:42;12.82;;;2.78;;
52576;SDS011;38469;53.562;10.048;2023-07-13T08:06:08;11.80;;;3.25;;
52576;SDS011;38469;53.562;10.048;2023-07-13T08:08:36;8.35;;;3.03;;
52576;SDS011;38469;53.562;10.048;2023-07-13T08:11:03;11.02;;;3.15;;
52576;SDS011;38469;53.562;10.048;2023-07-13T08:13:30;10.98;;;3.05;;
52576;SDS011;38469;53.562;10.048;2023-07-13T08:15:56;12.90;;;2.90;;
52576;SDS011;38469;53.562;10.048;2023-07-13T08:18:23;6.50;;;2.28;;
52576;SDS011;38469;53.562;10.048;2023-07-13T08:20:49;8.75;;;2.72;;
52576;SDS011;38469;53.562;10.048;2023-07-13T08:23:16;10.98;;;2.70;;
52576;SDS011;38469;53.562;10.048;2023-07-13T08:25:43;7.05;;;2.55;;
52576;SDS011;38469;53.562;10.048;2023-07-13T08:28:17;9.73;;;2.78;;
52576;SDS011;38469;53.562;10.048;2023-07-13T08:30:43;7.25;;;2.67;;
52576;SDS011;38469;53.562;10.048;2023-07-13T08:33:13;10.27;;;2.95;;
52576;SDS011;38469;53.562;10.048;2023-07-13T08:35:40;11.90;;;3.30;;
52576;SDS011;38469;53.562;10.048;2023-07-13T08:38:06;9.20;;;2.88;;
52576;SDS011;38469;53.562;10.048;2023-07-13T08:40:33;8.68;;;2.40;;
52576;SDS011;38469;53.562;10.048;2023-07-13T08:43:01;8.88;;;2.80;;
52576;SDS011;38469;53.562;10.048;2023-07-13T08:45:29;11.25;;;2.78;;
52576;SDS011;38469;53.562;10.048;2023-07-13T08:48:01;7.55;;;2.78;;
52576;SDS011;38469;53.562;10.048;2023-07-13T08:50:32;7.82;;;2.72;;
52576;SDS011;38469;53.562;10.048;2023-07-13T08:53:01;12.23;;;2.80;;
52576;SDS011;38469;53.562;10.048;2023-07-13T08:55:30;11.38;;;2.40;;
52576;SDS011;38469;53.562;10.048;2023-07-13T08:58:05;6.38;;;2.20;;
52576;SDS011;38469;53.562;10.048;2023-07-13T09:00:38;8.95;;;2.80;;
52576;SDS011;38469;53.562;10.048;2023-07-13T09:03:12;6.63;;;2.53;;
52576;SDS011;38469;53.562;10.048;2023-07-13T09:08:20;8.95;;;2.58;;
52576;SDS011;38469;53.562;10.048;2023-07-13T09:11:04;10.82;;;2.15;;
52576;SDS011;38469;53.562;10.048;2023-07-13T09:13:42;7.05;;;2.60;;
52576;SDS011;38469;53.562;10.048;2023-07-13T09:16:17;9.15;;;2.58;;
52576;SDS011;38469;53.562;10.048;2023-07-13T09:18:45;8.23;;;2.38;;
52576;SDS011;38469;53.562;10.048;2023-07-13T09:21:17;9.68;;;2.45;;
52576;SDS011;38469;53.562;10.048;2023-07-13T09:23:47;7.85;;;2.08;;
52576;SDS011;38469;53.562;10.048;2023-07-13T09:26:16;8.60;;;2.38;;
52576;SDS011;38469;53.562;10.048;2023-07-13T09:28:47;6.22;;;2.35;;
52576;SDS011;38469;53.562;10.048;2023-07-13T09:31:19;7.18;;;2.50;;
52576;SDS011;38469;53.562;10.048;2023-07-13T09:33:49;7.55;;;2.20;;
52576;SDS011;38469;53.562;10.048;2023-07-13T09:36:17;10.30;;;2.20;;
52576;SDS011;38469;53.562;10.048;2023-07-13T09:38:46;6.80;;;2.28;;
52576;SDS011;38469;53.562;10.048;2023-07-13T09:41:17;9.13;;;2.80;;
52576;SDS011;38469;53.562;10.048;2023-07-13T09:44:06;8.55;;;2.28;;
52576;SDS011;38469;53.562;10.048;2023-07-13T09:46:34;9.73;;;2.70;;
52576;SDS011;38469;53.562;10.048;2023-07-13T09:49:01;7.45;;;2.70;;
52576;SDS011;38469;53.562;10.048;2023-07-13T09:51:27;8.00;;;2.88;;
52576;SDS011;38469;53.562;10.048;2023-07-13T09:53:54;5.80;;;2.10;;
52576;SDS011;38469;53.562;10.048;2023-07-13T09:56:21;6.57;;;2.30;;
52576;SDS011;38469;53.562;10.048;2023-07-13T09:58:48;6.82;;;2.35;;
52576;SDS011;38469;53.562;10.048;2023-07-13T10:01:17;5.40;;;1.95;;
52576;SDS011;38469;53.562;10.048;2023-07-13T10:03:57;6.88;;;2.10;;
52576;SDS011;38469;53.562;10.048;2023-07-13T10:06:24;5.40;;;1.98;;
52576;SDS011;38469;53.562;10.048;2023-07-13T10:08:51;7.15;;;2.28;;
52576;SDS011;38469;53.562;10.048;2023-07-13T10:11:19;6.03;;;2.35;;
52576;SDS011;38469;53.562;10.048;2023-07-13T10:13:50;7.68;;;2.20;;
52576;SDS011;38469;53.562;10.048;2023-07-13T10:16:20;5.90;;;2.00;;
52576;SDS011;38469;53.562;10.048;2023-07-13T10:18:48;4.93;;;2.20;;
52576;SDS011;38469;53.562;10.048;2023-07-13T10:21:17;5.75;;;2.08;;
52576;SDS011;38469;53.562;10.048;2023-07-13T10:23:47;4.32;;;1.83;;
52576;SDS011;38469;53.562;10.048;2023-07-13T10:26:19;5.07;;;2.08;;
52576;SDS011;38469;53.562;10.048;2023-07-13T10:28:51;8.55;;;2.58;;
52576;SDS011;38469;53.562;10.048;2023-07-13T10:31:22;6.40;;;2.15;;
52576;SDS011;38469;53.562;10.048;2023-07-13T10:33:49;7.05;;;2.00;;
52576;SDS011;38469;53.562;10.048;2023-07-13T10:36:23;5.47;;;2.30;;
52576;SDS011;38469;53.562;10.048;2023-07-13T10:38:57;4.93;;;1.60;;
52576;SDS011;38469;53.562;10.048;2023-07-13T10:41:28;5.60;;;1.80;;
52576;SDS011;38469;53.562;10.048;2023-07-13T10:43:59;5.93;;;2.20;;
52576;SDS011;38469;53.562;10.048;2023-07-13T10:46:29;6.35;;;1.98;;
52576;SDS011;38469;53.562;10.048;2023-07-13T10:48:57;4.80;;;2.10;;
52576;SDS011;38469;53.562;10.048;2023-07-13T10:51:27;5.03;;;2.10;;
52576;SDS011;38469;53.562;10.048;2023-07-13T10:57:06;8.90;;;2.10;;
52576;SDS011;38469;53.562;10.048;2023-07-13T10:59:41;2.92;;;1.52;;
52576;SDS011;38469;53.562;10.048;2023-07-13T11:02:13;3.65;;;1.77;;
52576;SDS011;38469;53.562;10.048;2023-07-13T11:04:48;5.03;;;1.95;;
52576;SDS011;38469;53.562;10.048;2023-07-13T11:07:19;6.15;;;1.60;;
52576;SDS011;38469;53.562;10.048;2023-07-13T11:09:49;3.35;;;1.40;;
52576;SDS011;38469;53.562;10.048;2023-07-13T11:12:27;2.65;;;1.60;;
52576;SDS011;38469;53.562;10.048;2023-07-13T11:15:15;6.20;;;2.17;;
52576;SDS011;38469;53.562;10.048;2023-07-13T11:17:57;5.50;;;1.90;;
52576;SDS011;38469;53.562;10.048;2023-07-13T11:20:35;3.50;;;1.83;;
52576;SDS011;38469;53.562;10.048;2023-07-13T11:23:18;6.65;;;1.95;;
52576;SDS011;38469;53.562;10.048;2023-07-13T11:25:57;4.35;;;1.83;;
52576;SDS011;38469;53.562;10.048;2023-07-13T11:28:26;6.03;;;1.60;;
52576;SDS011;38469;53.562;10.048;2023-07-13T11:31:00;4.68;;;1.73;;
52576;SDS011;38469;53.562;10.048;2023-07-13T11:33:45;3.85;;;1.80;;
52576;SDS011;38469;53.562;10.048;2023-07-13T11:36:19;4.38;;;2.00;;
52576;SDS011;38469;53.562;10.048;2023-07-13T11:38:51;3.88;;;1.50;;
52576;SDS011;38469;53.562;10.048;2023-07-13T11:41:26;5.82;;;1.88;;
52576;SDS011;38469;53.562;10.048;2023-07-13T11:43:55;5.30;;;1.73;;
52576;SDS011;38469;53.562;10.048;2023-07-13T11:46:31;5.25;;;1.70;;
52576;SDS011;38469;53.562;10.048;2023-07-13T11:48:59;5.07;;;1.70;;
52576;SDS011;38469;53.562;10.048;2023-07-13T11:51:26;3.22;;;1.40;;
52576;SDS011;38469;53.562;10.048;2023-07-13T11:53:56;3.72;;;1.90;;
52576;SDS011;38469;53.562;10.048;2023-07-13T11:56:29;3.42;;;1.58;;
52576;SDS011;38469;53.562;10.048;2023-07-13T11:58:57;2.80;;;1.60;;
52576;SDS011;38469;53.562;10.048;2023-07-13T12:01:30;6.05;;;1.75;;
52576;SDS011;38469;53.562;10.048;2023-07-13T12:03:59;2.42;;;1.60;;
52576;SDS011;38469;53.562;10.048;2023-07-13T12:06:28;3.97;;;1.83;;
52576;SDS011;38469;53.562;10.048;2023-07-13T12:08:57;5.93;;;1.73;;
52576;SDS011;38469;53.562;10.048;2023-07-13T12:11:24;4.45;;;2.05;;
52576;SDS011;38469;53.562;10.048;2023-07-13T12:13:51;6.40;;;1.85;;
52576;SDS011;38469;53.562;10.048;2023-07-13T12:16:21;5.70;;;1.77;;
52576;SDS011;38469;53.562;10.048;2023-07-13T12:18:52;3.10;;;1.70;;
52576;SDS011;38469;53.562;10.048;2023-07-13T12:21:22;4.95;;;1.60;;
52576;SDS011;38469;53.562;10.048;2023-07-13T12:23:55;3.95;;;1.65;;
52576;SDS011;38469;53.562;10.048;2023-07-13T12:26:21;6.43;;;2.30;;
52576;SDS011;38469;53.562;10.048;2023-07-13T12:28:49;9.55;;;2.58;;
52576;SDS011;38469;53.562;10.048;2023-07-13T12:31:25;6.88;;;2.55;;
52576;SDS011;38469;53.562;10.048;2023-07-13T12:34:01;17.80;;;2.60;;
52576;SDS011;38469;53.562;10.048;2023-07-13T12:36:32;6.47;;;2.80;;
52576;SDS011;38469;53.562;10.048;2023-07-13T12:39:02;6.35;;;2.35;;
52576;SDS011;38469;53.562;10.048;2023-07-13T12:41:37;3.25;;;2.38;;
52576;SDS011;38469;53.562;10.048;2023-07-13T12:44:04;5.28;;;2.40;;
52576;SDS011;38469;53.562;10.048;2023-07-13T12:46:34;5.85;;;3.05;;
52576;SDS011;38469;53.562;10.048;2023-07-13T12:49:00;4.93;;;2.58;;
52576;SDS011;38469;53.562;10.048;2023-07-13T12:51:33;5.88;;;3.42;;
52576;SDS011;38469;53.562;10.048;2023-07-13T12:54:05;6.75;;;3.53;;
52576;SDS011;38469;53.562;10.048;2023-07-13T12:56:37;9.23;;;3.80;;
52576;SDS011;38469;53.562;10.048;2023-07-13T12:59:03;9.52;;;3.95;;
52576;SDS011;38469;53.562;10.048;2023-07-13T13:01:32;5.72;;;2.58;;
52576;SDS011;38469;53.562;10.048;2023-07-13T13:04:02;6.25;;;2.22;;
52576;SDS011;38469;53.562;10.048;2023-07-13T13:06:32;4.47;;;2.22;;
52576;SDS011;38469;53.562;10.048;2023-07-13T13:09:01;4.47;;;2.40;;
52576;SDS011;38469;53.562;10.048;2023-07-13T13:11:29;4.68;;;2.25;;
52576;SDS011;38469;53.562;10.048;2023-07-13T13:13:57;4.18;;;2.30;;
52576;SDS011;38469;53.562;10.048;2023-07-13T13:16:28;5.30;;;2.08;;
52576;SDS011;38469;53.562;10.048;2023-07-13T13:18:57;6.47;;;2.22;;
52576;SDS011;38469;53.562;10.048;2023-07-13T13:21:27;7.53;;;2.30;;
52576;SDS011;38469;53.562;10.048;2023-07-13T13:23:55;4.28;;;2.15;;
52576;SDS011;38469;53.562;10.048;2023-07-13T13:26:22;3.33;;;2.80;;
52576;SDS011;38469;53.562;10.048;2023-07-13T13:28:49;9.27;;;4.45;;
52576;SDS011;38469;53.562;10.048;2023-07-13T13:31:15;7.47;;;3.08;;
52576;SDS011;38469;53.562;10.048;2023-07-13T13:33:44;6.40;;;2.30;;
52576;SDS011;38469;53.562;10.048;2023-07-13T13:36:13;4.95;;;2.90;;
52576;SDS011;38469;53.562;10.048;2023-07-13T13:38:42;3.10;;;2.05;;
52576;SDS011;38469;53.562;10.048;2023-07-13T13:41:11;4.38;;;2.45;;
52576;SDS011;38469;53.562;10.048;2023-07-13T13:43:39;3.50;;;2.05;;
52576;SDS011;38469;53.562;10.048;2023-07-13T13:46:11;3.63;;;2.00;;
52576;SDS011;38469;53.562;10.048;2023-07-13T13:48:41;5.70;;;3.53;;
52576;SDS011;38469;53.562;10.048;2023-07-13T13:51:12;3.45;;;2.10;;
52576;SDS011;38469;53.562;10.048;2023-07-13T13:53:40;7.55;;;3.05;;
52576;SDS011;38469;53.562;10.048;2023-07-13T13:56:07;2.92;;;1.90;;
52576;SDS011;38469;53.562;10.048;2023-07-13T13:58:35;4.00;;;2.08;;
52576;SDS011;38469;53.562;10.048;2023-07-13T14:01:02;2.58;;;2.03;;
52576;SDS011;38469;53.562;10.048;2023-07-13T14:03:31;2.05;;;1.70;;
52576;SDS011;38469;53.562;10.048;2023-07-13T14:05:57;5.15;;;2.00;;
52576;SDS011;38469;53.562;10.048;2023-07-13T14:08:24;3.88;;;1.67;;
52576;SDS011;38469;53.562;10.048;2023-07-13T14:10:51;7.18;;;1.98;;
52576;SDS011;38469;53.562;10.048;2023-07-13T14:13:22;3.28;;;1.70;;
52576;SDS011;38469;53.562;10.048;2023-07-13T14:15:54;6.32;;;2.15;;
52576;SDS011;38469;53.562;10.048;2023-07-13T14:18:21;3.60;;;1.83;;
52576;SDS011;38469;53.562;10.048;2023-07-13T14:20:48;2.58;;;1.70;;
52576;SDS011;38469;53.562;10.048;2023-07-13T14:23:17;5.40;;;1.98;;
52576;SDS011;38469;53.562;10.048;2023-07-13T14:25:44;2.28;;;1.70;;
52576;SDS011;38469;53.562;10.048;2023-07-13T14:28:15;3.55;;;2.17;;
52576;SDS011;38469;53.562;10.048;2023-07-13T14:30:47;2.40;;;1.77;;
52576;SDS011;38469;53.562;10.048;2023-07-13T14:33:16;6.15;;;3.13;;
52576;SDS011;38469;53.562;10.048;2023-07-13T14:35:42;6.85;;;2.60;;
52576;SDS011;38469;53.562;10.048;2023-07-13T14:38:10;4.05;;;1.88;;
52576;SDS011;38469;53.562;10.048;2023-07-13T14:40:39;6.25;;;2.08;;
52576;SDS011;38469;53.562;10.048;2023-07-13T14:43:07;4.47;;;1.65;;
52576;SDS011;38469;53.562;10.048;2023-07-13T14:45:35;3.20;;;1.63;;